Time;durP1;ratioP1;P1;durP2;ratioP2;P2;SDS_P1;SDS_P2;PMS_P1;PMS_P2;Temp;Humidity;BMP_temperature;BMP_pressure;BME280_temperature;BME280_humidity;BME280_pressure;Samples;Min_cycle;Max_cycle;Signal;HPM_P1;HPM_P2
2023/04/05 00:00:27;;;;;;;4.27;3.23;;;8.20;43.20;;;10.67;35.67;102506.59;5036304;28;20194;-58
2023/04/05 00:02:54;;;;;;;5.37;3.33;;;8.00;43.20;;;10.57;35.48;102503.09;5035810;28;20190;-61
2023/04/05 00:05:29;;;;;;;4.73;2.97;;;7.90;43.40;;;10.45;35.75;102498.84;5034628;28;20222;-61
2023/04/05 00:07:56;;;;;;;6.87;3.57;;;7.80;43.70;;;10.38;35.94;102506.44;5035626;28;20197;-56
2023/04/05 00:10:23;;;;;;;5.23;2.80;;;7.70;44.60;;;10.33;36.64;102502.53;5039739;28;20194;-59
2023/04/05 00:12:50;;;;;;;4.80;3.20;;;7.70;44.70;;;10.30;36.79;102505.41;5035944;28;20194;-60
2023/04/05 00:15:18;;;;;;;7.03;3.47;;;7.60;45.00;;;10.28;36.46;102497.66;5035700;28;20233;-60
2023/04/05 00:17:46;;;;;;;3.87;3.00;;;7.60;45.10;;;10.29;36.98;102499.34;5035855;28;20732;-58
2023/04/05 00:20:13;;;;;;;3.40;2.80;;;7.60;45.50;;;10.31;37.10;102502.66;5035700;28;20237;-57
2023/04/05 00:22:43;;;;;;;5.43;3.63;;;7.60;45.60;;;10.32;36.61;102499.06;5036334;28;20678;-59
2023/04/05 00:25:10;;;;;;;4.67;3.10;;;7.70;45.20;;;10.27;36.34;102495.16;5035359;28;20218;-59
2023/04/05 00:27:37;;;;;;;6.87;3.33;;;7.60;45.00;;;10.20;36.88;102497.44;5035640;28;20206;-58
2023/04/05 00:30:06;;;;;;;4.50;3.30;;;7.60;45.30;;;10.13;37.11;102493.66;5035483;28;20198;-59
2023/04/05 00:32:33;;;;;;;4.33;3.80;;;7.50;45.60;;;10.09;37.45;102492.22;5035495;28;20194;-59
2023/04/05 00:35:00;;;;;;;3.47;3.17;;;7.50;45.90;;;10.07;37.19;102500.25;5034159;28;20256;-60
2023/04/05 00:37:27;;;;;;;3.83;3.37;;;7.40;46.10;;;10.06;37.01;102495.09;5035434;28;20199;-60
2023/04/05 00:39:56;;;;;;;3.73;3.30;;;7.40;46.20;;;10.04;37.43;102497.88;5035154;28;20215;-60
2023/04/05 00:42:23;;;;;;;4.23;3.20;;;7.40;45.90;;;10.02;37.09;102496.31;5035347;28;20198;-59
2023/04/05 00:44:50;;;;;;;4.40;3.30;;;7.40;46.00;;;9.98;37.68;102495.72;5035321;28;20241;-58
2023/04/05 00:47:17;;;;;;;5.47;3.70;;;7.30;46.30;;;9.96;37.49;102492.41;5035482;28;20194;-60
2023/04/05 00:49:45;;;;;;;4.30;3.60;;;7.30;46.60;;;9.94;37.58;102498.75;5035162;28;20206;-59
2023/04/05 00:52:13;;;;;;;3.93;3.00;;;7.30;46.50;;;9.91;37.52;102488.50;5034901;28;20187;-60
2023/04/05 00:54:42;;;;;;;3.37;3.07;;;7.20;46.40;;;9.86;37.42;102490.69;5035047;28;20215;-59
2023/04/05 00:57:10;;;;;;;5.43;3.77;;;7.20;46.60;;;9.79;37.48;102490.34;5034609;28;20202;-58
2023/04/05 00:59:37;;;;;;;4.50;3.20;;;7.20;46.80;;;9.73;37.87;102485.59;5035257;28;20731;-59
2023/04/05 01:02:12;;;;;;;6.97;3.70;;;7.10;47.10;;;9.68;38.19;102486.91;5035029;28;20190;-60
2023/04/05 01:04:48;;;;;;;3.47;3.17;;;7.00;47.10;;;9.62;38.24;102482.16;5034458;28;20212;-60
2023/04/05 01:07:27;;;;;;;5.83;3.37;;;7.00;47.70;;;9.55;38.38;102481.84;5034723;28;20250;-60
2023/04/05 01:09:58;;;;;;;5.50;3.47;;;6.90;47.80;;;9.52;38.55;102477.66;5034383;28;20267;-59
2023/04/05 01:12:32;;;;;;;4.03;3.30;;;6.90;48.30;;;9.48;39.08;102470.16;5034824;28;20245;-59
2023/04/05 01:15:00;;;;;;;5.00;3.07;;;6.80;48.50;;;9.45;39.23;102470.41;5034257;28;20218;-59
2023/04/05 01:17:35;;;;;;;7.23;3.57;;;6.80;48.90;;;9.46;39.04;102478.16;5034634;28;20191;-60
2023/04/05 01:20:09;;;;;;;4.77;3.20;;;6.80;48.70;;;9.44;38.83;102474.81;5033263;28;20583;-57
2023/04/05 01:23:12;;;;;;;6.57;3.77;;;6.80;48.60;;;9.37;39.47;102473.63;5034875;28;20186;-58
2023/04/05 01:26:39;;;;;;;4.00;3.63;;;6.70;49.20;;;9.35;39.41;102469.47;5034235;28;20221;-61
2023/04/05 01:29:44;;;;;;;5.33;3.37;;;6.70;49.30;;;9.29;39.54;102470.81;4973306;28;20650;-57
2023/04/05 01:32:24;;;;;;;6.27;3.83;;;6.70;49.40;;;9.30;39.60;102471.63;5034284;28;20257;-59
2023/04/05 01:35:03;;;;;;;5.33;3.67;;;6.70;49.70;;;9.28;39.51;102470.91;5034055;28;20225;-59
2023/04/05 01:37:34;;;;;;;4.90;3.47;;;6.70;49.80;;;9.24;40.17;102465.09;5032923;28;20290;-59
2023/04/05 01:40:03;;;;;;;5.27;3.50;;;6.60;49.80;;;9.22;40.17;102469.59;5033792;28;20221;-59
2023/04/05 01:42:30;;;;;;;4.23;3.30;;;6.60;50.30;;;9.20;39.86;102471.53;5033997;28;20196;-57
2023/04/05 01:44:58;;;;;;;4.67;3.60;;;6.60;50.30;;;9.18;39.88;102464.72;5033609;28;20687;-59
2023/04/05 01:47:26;;;;;;;6.10;3.20;;;6.50;50.10;;;9.15;40.08;102467.63;5034312;28;20277;-59
2023/04/05 01:49:53;;;;;;;5.70;3.60;;;6.50;50.00;;;9.13;40.13;102470.34;5034088;28;20221;-58
2023/04/05 01:52:20;;;;;;;4.20;3.73;;;6.50;50.60;;;9.17;40.32;102465.69;5033930;28;20201;-58
2023/04/05 01:54:46;;;;;;;5.10;3.70;;;6.50;50.70;;;9.23;39.89;102460.78;5033579;28;20214;-58
2023/04/05 01:57:13;;;;;;;5.33;3.20;;;6.50;50.50;;;9.30;39.86;102461.13;5033675;28;20205;-65
2023/04/05 01:59:40;;;;;;;4.93;3.40;;;6.60;50.60;;;9.39;39.82;102458.56;5033722;28;20711;-59
2023/04/05 02:02:10;;;;;;;4.87;3.53;;;6.70;50.60;;;9.50;39.66;102458.56;5033847;28;20238;-59
2023/04/05 02:04:36;;;;;;;5.23;3.83;;;6.90;50.50;;;9.60;39.61;102453.38;5033006;28;20238;-56
2023/04/05 02:07:03;;;;;;;6.07;3.53;;;7.00;49.90;;;9.65;39.16;102450.38;5033740;28;20245;-59
2023/04/05 02:09:30;;;;;;;4.10;3.30;;;7.00;49.50;;;9.66;39.13;102452.88;5033941;28;20197;-57
2023/04/05 02:11:57;;;;;;;5.27;3.00;;;7.00;49.50;;;9.68;39.47;102452.72;5034055;28;20603;-57
2023/04/05 02:14:24;;;;;;;4.40;3.10;;;7.00;49.50;;;9.69;39.29;102447.38;5033133;28;20695;-59
2023/04/05 02:16:55;;;;;;;4.63;3.30;;;7.00;49.60;;;9.72;39.10;102451.53;5033815;28;20628;-58
2023/04/05 02:19:24;;;;;;;5.27;3.00;;;7.10;49.70;;;9.73;39.30;102450.56;5033310;28;20208;-59
2023/04/05 02:21:55;;;;;;;4.67;3.70;;;7.10;49.80;;;9.72;39.45;102446.28;5033607;28;20537;-59
2023/04/05 02:24:22;;;;;;;5.17;3.70;;;7.10;49.80;;;9.71;39.29;102442.81;5033179;28;20214;-60
2023/04/05 02:26:50;;;;;;;5.23;3.90;;;7.10;49.50;;;9.66;39.64;102444.97;5045750;28;20206;-58
2023/04/05 02:29:16;;;;;;;5.67;3.33;;;7.10;49.80;;;9.67;39.53;102448.44;5014967;28;20722;-58
2023/04/05 02:31:43;;;;;;;4.30;3.53;;;7.10;49.90;;;9.68;39.30;102440.44;5033323;28;20190;-60
2023/04/05 02:34:10;;;;;;;4.60;3.57;;;7.10;50.00;;;9.69;39.39;102443.91;5033216;28;20257;-57
2023/04/05 02:36:40;;;;;;;5.97;4.17;;;7.10;50.20;;;9.69;39.31;102443.91;5032600;28;20233;-58
2023/04/05 02:39:07;;;;;;;13.93;4.37;;;7.10;50.10;;;9.67;39.76;102443.19;5033208;28;20216;-56
2023/04/05 02:41:35;;;;;;;4.67;3.93;;;7.10;50.00;;;9.59;39.92;102438.56;5033130;28;20198;-60
2023/04/05 02:44:02;;;;;;;4.60;4.07;;;7.00;50.20;;;9.48;39.86;102443.88;5033256;28;20246;-58
2023/04/05 02:46:29;;;;;;;7.47;4.07;;;6.90;50.20;;;9.36;40.01;102435.19;5033231;28;20195;-56
2023/04/05 02:48:55;;;;;;;4.67;4.23;;;6.70;50.80;;;9.28;40.57;102442.84;5032275;28;20198;-59
2023/04/05 02:51:23;;;;;;;5.87;4.30;;;6.70;51.30;;;9.25;40.69;102437.00;5033329;28;20198;-59
2023/04/05 02:53:51;;;;;;;5.27;4.17;;;6.60;51.20;;;9.21;40.30;102438.22;5033280;28;20211;-56
2023/04/05 02:56:20;;;;;;;3.90;3.50;;;6.60;51.00;;;9.17;40.49;102435.03;5034136;28;20195;-60
2023/04/05 02:58:48;;;;;;;6.97;4.30;;;6.50;51.70;;;9.18;40.60;102435.81;5033165;28;20532;-61
2023/04/05 03:01:16;;;;;;;4.50;4.10;;;6.50;51.60;;;9.13;40.72;102427.50;5033261;28;20271;-59
2023/04/05 03:03:43;;;;;;;7.40;4.53;;;6.50;52.00;;;9.10;40.86;102433.84;5032953;28;20193;-58
2023/04/05 03:06:10;;;;;;;5.07;4.10;;;6.50;52.00;;;9.09;40.69;102431.31;5033247;28;20348;-59
2023/04/05 03:08:42;;;;;;;5.90;4.37;;;6.40;51.90;;;9.07;41.12;102434.09;5033341;28;20199;-56
2023/04/05 03:11:12;;;;;;;7.43;4.67;;;6.40;52.30;;;9.10;41.04;102428.59;5033156;28;20202;-60
2023/04/05 03:13:39;;;;;;;5.00;4.00;;;6.50;52.50;;;9.13;41.03;102435.41;5031635;28;20204;-60
2023/04/05 03:16:06;;;;;;;6.30;4.17;;;6.50;52.40;;;9.19;40.91;102437.50;5033619;28;20545;-56
2023/04/05 03:18:33;;;;;;;8.43;4.90;;;6.50;52.00;;;9.19;40.68;102438.34;5036705;28;20209;-60
2023/04/05 03:21:00;;;;;;;5.40;4.27;;;6.60;52.00;;;9.14;40.69;102434.41;5037433;28;20722;-58
2023/04/05 03:23:30;;;;;;;4.03;3.50;;;6.50;51.90;;;9.08;40.44;102430.47;5036530;28;20225;-56
2023/04/05 03:25:58;;;;;;;5.20;4.30;;;6.50;51.60;;;9.00;40.55;102427.66;5035974;28;20565;-57
2023/04/05 03:28:28;;;;;;;6.10;4.20;;;6.40;51.70;;;8.90;40.81;102428.50;5037146;28;20223;-58
2023/04/05 03:30:55;;;;;;;5.70;4.70;;;6.30;52.10;;;8.83;41.13;102425.53;5037394;28;20184;-60
2023/04/05 03:33:22;;;;;;;5.07;4.10;;;6.20;52.30;;;8.75;41.44;102427.91;5020613;28;20208;-57
2023/04/05 03:35:49;;;;;;;4.90;3.63;;;6.10;52.70;;;8.70;41.85;102424.84;5038673;28;20237;-58
2023/04/05 03:38:16;;;;;;;6.73;4.60;;;6.10;53.20;;;8.71;41.59;102426.50;5039568;28;20226;-56
2023/04/05 03:40:44;;;;;;;5.77;4.00;;;6.10;53.10;;;8.71;41.49;102426.50;5046359;28;20211;-59
2023/04/05 03:43:11;;;;;;;4.97;4.20;;;6.10;53.10;;;8.73;41.40;102429.81;5050565;28;20258;-61
2023/04/05 03:45:39;;;;;;;5.40;4.30;;;6.10;53.00;;;8.73;41.37;102424.56;5046518;28;20226;-60
2023/04/05 03:48:07;;;;;;;8.47;4.43;;;6.10;52.80;;;8.70;41.25;102427.47;5037337;28;20200;-60
2023/04/05 03:50:34;;;;;;;6.40;3.93;;;6.00;52.40;;;8.63;41.24;102428.88;5036637;28;20223;-58
2023/04/05 03:53:02;;;;;;;10.07;5.23;;;6.00;52.70;;;8.56;41.55;102425.06;5036753;28;20209;-61
2023/04/05 03:55:30;;;;;;;6.33;4.10;;;5.90;53.20;;;8.53;41.97;102417.44;5035635;28;20652;-59
2023/04/05 03:57:57;;;;;;;5.43;4.00;;;5.90;53.60;;;8.49;41.95;102413.38;5036649;28;20194;-60
2023/04/05 04:00:23;;;;;;;7.77;4.70;;;5.80;53.70;;;8.46;41.90;102413.63;5036570;28;20218;-58
2023/04/05 04:02:52;;;;;;;7.33;4.20;;;5.80;53.90;;;8.40;42.20;102417.56;5035589;28;20198;-61
2023/04/05 04:05:20;;;;;;;4.57;3.90;;;5.80;54.70;;;8.37;42.30;102423.03;5036150;28;20569;-60
2023/04/05 04:07:47;;;;;;;6.67;4.40;;;5.70;54.20;;;8.33;42.28;102416.38;5051299;28;20188;-58
2023/04/05 04:10:16;;;;;;;4.93;4.43;;;5.70;54.50;;;8.29;42.42;102419.34;5041312;28;20202;-59
2023/04/05 04:12:44;;;;;;;6.67;4.33;;;5.60;54.70;;;8.26;42.57;102414.28;5036673;28;20204;-58
2023/04/05 04:15:11;;;;;;;6.20;4.13;;;5.60;54.80;;;8.28;42.65;102418.50;5035347;28;20285;-61
2023/04/05 04:17:38;;;;;;;6.67;5.00;;;5.60;54.90;;;8.29;42.38;102414.09;5035955;28;20292;-61
2023/04/05 04:20:11;;;;;;;5.63;4.23;;;5.60;54.70;;;8.28;42.56;102412.41;5035848;28;20236;-59
2023/04/05 04:22:39;;;;;;;5.77;4.30;;;5.60;54.80;;;8.28;42.67;102415.03;5034325;28;20192;-61
2023/04/05 04:25:09;;;;;;;6.93;4.73;;;5.60;54.70;;;8.27;42.84;102416.00;5035589;28;20242;-59
2023/04/05 04:27:38;;;;;;;6.53;4.47;;;5.60;54.80;;;8.26;42.58;102411.66;5036112;28;20199;-60
2023/04/05 04:30:09;;;;;;;6.93;4.70;;;5.60;54.70;;;8.27;42.30;102418.63;5035787;28;20207;-59
2023/04/05 04:32:50;;;;;;;8.70;4.30;;;5.60;54.80;;;8.28;42.72;102420.28;5035233;28;20200;-61
2023/04/05 04:35:23;;;;;;;6.87;4.60;;;5.60;55.00;;;8.28;42.62;102418.50;5035257;28;20244;-58
2023/04/05 04:37:56;;;;;;;7.90;4.80;;;5.60;54.90;;;8.26;42.49;102412.53;5035593;28;20577;-56
2023/04/05 04:40:26;;;;;;;6.37;4.87;;;5.60;55.20;;;8.28;42.76;102425.53;5034857;28;20215;-58
2023/04/05 04:42:57;;;;;;;7.80;4.80;;;5.60;55.00;;;8.27;42.19;102418.63;5036556;28;20192;-60
2023/04/05 04:45:25;;;;;;;7.23;4.47;;;5.60;54.90;;;8.23;42.59;102425.00;5034835;28;20585;-59
2023/04/05 04:47:52;;;;;;;7.83;4.93;;;5.60;55.20;;;8.22;42.69;102415.50;5034532;28;20239;-57
2023/04/05 04:50:21;;;;;;;5.10;3.93;;;5.60;55.20;;;8.22;42.50;102421.56;5037571;28;20759;-58
2023/04/05 04:52:48;;;;;;;5.80;3.97;;;5.60;55.00;;;8.19;42.51;102417.41;5034902;28;20225;-59
2023/04/05 04:55:15;;;;;;;5.77;4.30;;;5.60;55.00;;;8.15;42.89;102415.94;5034760;28;20222;-62
2023/04/05 04:57:43;;;;;;;7.73;4.53;;;5.50;55.00;;;8.11;42.47;102422.38;5034528;28;20631;-66
2023/04/05 05:00:13;;;;;;;7.43;4.63;;;5.50;55.20;;;8.08;43.16;102424.41;5035692;28;20210;-58
2023/04/05 05:02:41;;;;;;;5.20;3.97;;;5.40;55.70;;;8.08;42.89;102421.78;5035389;28;20187;-61
2023/04/05 05:05:10;;;;;;;6.13;4.70;;;5.40;55.40;;;8.04;43.06;102431.66;5035191;28;20258;-61
2023/04/05 05:07:43;;;;;;;8.97;4.97;;;5.40;55.60;;;8.01;43.43;102416.16;5035188;28;20198;-59
2023/04/05 05:10:11;;;;;;;6.10;4.00;;;5.40;56.20;;;8.01;43.04;102416.16;5035438;28;20183;-60
2023/04/05 05:12:38;;;;;;;5.70;3.90;;;5.40;56.10;;;8.02;42.99;102419.63;5050369;28;20196;-57
2023/04/05 05:15:07;;;;;;;5.53;4.47;;;5.40;56.10;;;8.01;43.59;102421.41;5034394;28;20631;-58
2023/04/05 05:17:34;;;;;;;4.83;4.23;;;5.30;56.10;;;8.01;43.24;102421.41;5033907;28;20199;-60
2023/04/05 05:20:04;;;;;;;4.93;4.27;;;5.30;55.90;;;8.01;43.42;102421.41;5038695;28;20203;-62
2023/04/05 05:22:31;;;;;;;6.80;4.30;;;5.30;56.20;;;8.03;43.28;102424.75;5035201;28;20180;-61
2023/04/05 05:25:00;;;;;;;6.30;4.10;;;5.30;56.10;;;8.07;43.37;102427.97;5034380;28;20214;-58
2023/04/05 05:27:27;;;;;;;5.73;4.40;;;5.30;56.40;;;8.12;43.21;102423.22;5034307;28;20202;-57
2023/04/05 05:29:54;;;;;;;8.17;4.50;;;5.40;56.60;;;8.19;43.17;102416.56;5034596;28;20196;-59
2023/04/05 05:32:21;;;;;;;7.30;4.80;;;5.40;56.40;;;8.29;43.26;102416.72;5033309;28;20550;-57
2023/04/05 05:34:48;;;;;;;6.63;4.93;;;5.50;56.40;;;8.37;42.77;102416.97;5034498;28;20242;-58
2023/04/05 05:37:16;;;;;;;5.87;4.73;;;5.60;56.00;;;8.40;42.98;102417.56;5034647;28;20200;-60
2023/04/05 05:39:43;;;;;;;5.57;4.73;;;5.60;55.80;;;8.40;43.20;102416.72;5034315;28;20207;-62
2023/04/05 05:42:12;;;;;;;12.53;8.90;;;5.60;56.00;;;8.43;43.19;102413.84;5034770;28;20554;-59
2023/04/05 05:44:39;;;;;;;6.57;4.53;;;5.70;56.50;;;8.47;42.52;102417.91;5034186;28;20750;-60
2023/04/05 05:47:06;;;;;;;7.03;4.50;;;5.70;56.00;;;8.49;42.56;102416.00;5033952;28;20296;-61
2023/04/05 05:49:33;;;;;;;9.87;6.30;;;5.70;55.80;;;8.49;42.70;102410.75;5034582;28;20198;-62
2023/04/05 05:52:00;;;;;;;6.93;5.00;;;5.70;56.20;;;8.57;42.67;102411.00;5034458;28;20195;-59
2023/04/05 05:54:27;;;;;;;6.63;5.10;;;5.80;56.00;;;8.61;42.44;102415.03;5034027;28;20221;-60
2023/04/05 05:56:54;;;;;;;7.27;4.50;;;5.80;56.00;;;8.65;42.71;102416.50;5050381;28;20210;-60
2023/04/05 05:59:22;;;;;;;6.33;4.77;;;5.90;55.90;;;8.72;42.69;102415.06;5034243;28;20663;-60
2023/04/05 06:01:50;;;;;;;6.97;5.03;;;6.00;55.90;;;8.80;42.22;102415.25;5033173;28;20227;-60
2023/04/05 06:04:18;;;;;;;7.70;4.90;;;6.00;55.60;;;8.85;42.26;102420.97;5032604;28;20218;-62
2023/04/05 06:06:46;;;;;;;10.33;4.97;;;6.10;55.70;;;8.92;42.05;102424.78;5033937;28;20194;-60
2023/04/05 06:09:14;;;;;;;7.67;5.43;;;6.20;55.40;;;9.00;41.79;102416.31;5034559;28;20187;-59
2023/04/05 06:11:41;;;;;;;11.57;5.93;;;6.20;55.00;;;9.04;41.71;102417.72;5023173;28;20741;-60
2023/04/05 06:14:23;;;;;;;8.27;4.83;;;6.20;54.80;;;9.07;41.61;102418.31;5032102;28;20292;-60
2023/04/05 06:16:51;;;;;;;8.03;4.63;;;6.30;54.60;;;9.11;41.51;102417.09;5034742;28;20243;-59
2023/04/05 06:19:18;;;;;;;5.60;4.40;;;6.30;54.60;;;9.14;42.15;102413.41;5034265;28;20256;-57
2023/04/05 06:21:45;;;;;;;5.03;4.53;;;6.40;54.80;;;9.18;41.13;102415.66;5034144;28;20241;-57
2023/04/05 06:24:12;;;;;;;8.97;4.57;;;6.40;54.30;;;9.21;41.13;102418.03;5033862;28;20214;-58
2023/04/05 06:26:39;;;;;;;8.37;5.17;;;6.40;54.40;;;9.26;41.34;102418.50;5033593;28;20203;-61
2023/04/05 06:29:06;;;;;;;5.90;4.80;;;6.50;54.40;;;9.31;40.99;102413.72;5033730;28;20234;-61
2023/04/05 06:31:35;;;;;;;9.63;4.60;;;6.50;54.10;;;9.38;40.94;102412.25;5033517;28;20198;-62
2023/04/05 06:34:02;;;;;;;6.40;3.97;;;6.60;54.00;;;9.45;40.69;102402.91;5032677;28;20782;-61
2023/04/05 06:36:30;;;;;;;6.70;4.43;;;6.60;53.60;;;9.53;40.33;102407.53;5033466;28;20536;-61
2023/04/05 06:38:58;;;;;;;9.73;4.53;;;6.60;53.30;;;9.61;40.36;102407.72;5033190;28;20214;-59
2023/04/05 06:41:26;;;;;;;5.87;3.93;;;6.70;53.40;;;9.70;39.79;102411.41;5033062;28;20221;-59
2023/04/05 06:43:53;;;;;;;6.57;3.73;;;6.80;52.70;;;9.76;39.22;102403.00;5032465;28;20214;-61
2023/04/05 06:46:21;;;;;;;6.17;3.53;;;6.90;52.40;;;9.80;39.41;102412.28;5033192;28;20195;-60
2023/04/05 06:48:50;;;;;;;4.03;3.20;;;6.90;51.60;;;9.85;38.68;102415.38;5034809;28;20199;-58
2023/04/05 06:51:17;;;;;;;15.87;9.30;;;7.00;51.20;;;9.88;39.19;102409.84;5034517;28;20199;-60
2023/04/05 06:53:44;;;;;;;6.57;4.23;;;7.00;51.50;;;9.94;39.26;102415.44;5036552;28;20635;-56
2023/04/05 06:56:12;;;;;;;9.20;4.63;;;7.10;51.70;;;10.04;38.89;102404.97;5035481;28;20237;-58
2023/04/05 06:58:40;;;;;;;7.40;3.97;;;7.10;51.50;;;10.15;38.44;102413.66;5035404;28;20204;-61
2023/04/05 07:01:07;;;;;;;13.27;8.63;;;7.20;50.80;;;10.25;38.23;102408.44;5036332;28;20683;-59
2023/04/05 07:03:35;;;;;;;8.70;5.50;;;7.30;50.70;;;10.38;37.89;102410.84;5044224;28;20251;-59
2023/04/05 07:06:08;;;;;;;7.00;4.93;;;7.40;50.50;;;10.49;37.36;102414.22;5023521;28;20217;-61
2023/04/05 07:08:36;;;;;;;9.13;5.60;;;7.60;50.00;;;10.59;37.37;102412.47;5034222;28;20201;-60
2023/04/05 07:11:20;;;;;;;7.77;3.20;;;7.70;49.60;;;10.81;37.55;102407.00;5031091;28;20210;-60
2023/04/05 07:13:52;;;;;;;6.40;3.53;;;7.80;49.20;;;11.31;36.68;102405.13;5028022;28;20211;-59
2023/04/05 07:16:21;;;;;;;5.53;3.80;;;7.90;49.00;;;11.94;35.96;102398.44;5036033;28;20210;-58
2023/04/05 07:18:50;;;;;;;5.83;3.33;;;8.20;49.30;;;12.65;35.13;102398.72;5033960;28;20557;-60
2023/04/05 07:21:18;;;;;;;7.47;4.37;;;8.60;48.40;;;13.38;33.53;102395.88;5035811;28;20210;-59
2023/04/05 07:23:45;;;;;;;10.13;3.67;;;9.10;47.30;;;14.15;32.66;102397.78;5036244;28;20248;-61
2023/04/05 07:26:12;;;;;;;7.70;6.13;;;9.70;46.30;;;14.96;31.72;102399.00;5036299;28;20202;-59
2023/04/05 07:28:39;;;;;;;6.63;4.10;;;10.30;44.60;;;15.84;30.13;102390.28;5036373;28;20186;-57
2023/04/05 07:31:06;;;;;;;22.53;17.00;;;10.90;42.50;;;16.78;28.85;102393.81;5033447;28;20256;-61
2023/04/05 07:33:33;;;;;;;4.40;3.60;;;11.60;41.80;;;17.65;27.73;102386.41;5033388;28;20190;-63
2023/04/05 07:36:02;;;;;;;4.67;3.70;;;12.30;39.80;;;18.45;26.59;102382.88;5035925;28;20199;-60
2023/04/05 07:38:30;;;;;;;6.90;4.37;;;12.90;37.80;;;19.30;25.53;102378.53;5036076;28;20190;-61
2023/04/05 07:40:57;;;;;;;7.57;4.07;;;13.50;36.30;;;20.08;23.92;102375.69;5050012;28;20203;-60
2023/04/05 07:43:26;;;;;;;6.80;3.47;;;14.20;34.70;;;20.86;24.32;102377.06;5036395;28;20225;-61
2023/04/05 07:46:01;;;;;;;10.10;3.93;;;14.80;35.10;;;21.69;22.71;102381.94;5034171;28;20207;-60
2023/04/05 07:48:28;;;;;;;4.57;3.83;;;15.40;33.00;;;22.40;21.79;102380.16;5034811;28;20206;-59
2023/04/05 07:51:01;;;;;;;7.63;4.67;;;16.00;31.60;;;23.09;20.49;102376.75;5035826;28;20182;-61
2023/04/05 07:53:29;;;;;;;8.13;4.33;;;16.50;29.80;;;23.69;20.02;102384.16;5034615;28;20190;-59
2023/04/05 07:55:57;;;;;;;6.13;4.07;;;17.10;29.60;;;24.36;19.47;102377.91;5033510;28;20215;-58
2023/04/05 07:58:24;;;;;;;9.07;4.10;;;17.60;28.70;;;25.06;19.26;102386.31;5036273;28;20171;-61
2023/04/05 08:00:52;;;;;;;6.33;3.67;;;18.10;28.60;;;25.70;18.01;102388.22;5050925;28;20206;-57
2023/04/05 08:03:19;;;;;;;6.03;3.70;;;18.50;27.40;;;26.29;17.67;102387.97;5033948;28;20214;-60
2023/04/05 08:05:46;;;;;;;7.10;4.27;;;19.00;26.80;;;26.80;17.38;102385.25;5028754;28;20596;-61
2023/04/05 08:08:13;;;;;;;6.10;3.53;;;19.50;26.10;;;27.29;16.47;102380.16;5035534;28;20191;-60
2023/04/05 08:10:41;;;;;;;7.20;3.87;;;19.90;25.60;;;27.71;16.15;102386.00;5035618;28;20602;-61
2023/04/05 08:13:09;;;;;;;5.83;3.93;;;20.20;24.20;;;28.15;15.55;102372.28;5051915;28;20198;-59
2023/04/05 08:15:36;;;;;;;8.07;6.47;;;20.50;24.30;;;28.50;15.46;102379.22;5034648;28;20268;-60
2023/04/05 08:18:03;;;;;;;6.43;3.47;;;21.00;23.90;;;28.76;14.41;102379.25;5036201;28;20197;-57
2023/04/05 08:20:30;;;;;;;3.90;3.10;;;21.30;22.20;;;29.01;14.27;102376.00;5035127;28;20540;-62
2023/04/05 08:22:57;;;;;;;4.90;2.30;;;21.60;21.80;;;29.23;13.54;102374.06;5025689;28;20517;-62
2023/04/05 08:25:24;;;;;;;4.23;2.83;;;21.90;21.00;;;29.48;13.76;102371.53;5023890;28;20218;-58
2023/04/05 08:27:52;;;;;;;4.90;3.90;;;22.10;21.10;;;29.76;13.32;102372.28;5035093;28;20195;-60
2023/04/05 08:30:19;;;;;;;2.90;2.53;;;22.30;21.00;;;29.89;13.14;102366.38;5034928;28;20203;-60
2023/04/05 08:32:46;;;;;;;2.83;2.30;;;22.50;20.40;;;30.01;13.05;102367.00;5034999;28;20670;-59
2023/04/05 08:35:13;;;;;;;4.40;2.80;;;22.70;19.90;;;30.00;13.39;102363.47;5033837;28;20246;-57
2023/04/05 08:37:40;;;;;;;3.87;2.90;;;23.00;20.80;;;30.26;12.82;102361.69;5050049;28;20202;-59
2023/04/05 08:40:09;;;;;;;4.27;2.70;;;23.10;20.20;;;30.43;13.02;102361.50;5032693;28;20293;-60
2023/04/05 08:42:45;;;;;;;2.63;2.33;;;23.30;19.40;;;30.57;12.55;102358.00;5029135;28;20226;-58
2023/04/05 08:45:18;;;;;;;4.43;2.50;;;23.30;19.00;;;30.65;12.16;102362.91;5032588;28;20237;-60
2023/04/05 08:47:48;;;;;;;3.90;2.63;;;23.50;19.10;;;30.77;12.16;102358.03;5033127;28;20568;-61
2023/04/05 08:50:15;;;;;;;6.27;5.20;;;23.60;18.30;;;31.06;12.43;102355.66;5033443;28;20179;-60
2023/04/05 08:52:49;;;;;;;3.30;3.00;;;23.70;19.10;;;31.16;11.14;102355.66;5033892;28;20652;-61
2023/04/05 08:55:16;;;;;;;3.70;2.40;;;23.70;17.50;;;31.04;11.60;102354.28;5033182;28;20210;-60
2023/04/05 08:57:50;;;;;;;3.87;3.37;;;23.90;17.70;;;31.05;11.38;102358.63;5034321;28;20194;-59
2023/04/05 09:00:20;;;;;;;10.80;8.53;;;24.00;17.90;;;30.99;11.46;102351.56;5034853;28;20186;-60
2023/04/05 09:02:55;;;;;;;6.60;6.00;;;24.20;18.20;;;30.99;11.69;102348.84;5034024;28;20244;-60
2023/04/05 09:05:23;;;;;;;4.50;4.10;;;24.30;17.70;;;31.17;11.84;102351.00;5033813;28;20586;-60
2023/04/05 09:07:50;;;;;;;4.57;3.20;;;24.40;18.00;;;31.52;11.53;102351.03;5031058;28;20291;-61
2023/04/05 09:10:19;;;;;;;3.57;2.50;;;24.50;17.80;;;31.76;11.33;102349.31;5032755;28;20689;-60
2023/04/05 09:12:49;;;;;;;3.23;2.90;;;24.60;17.20;;;31.70;11.42;102350.44;5029775;28;20237;-62
2023/04/05 09:15:23;;;;;;;2.67;2.20;;;24.70;17.20;;;31.67;10.60;102352.88;5030885;28;20230;-61
2023/04/05 09:17:51;;;;;;;1.80;1.70;;;24.90;16.80;;;31.35;11.03;102354.03;5024468;28;20194;-60
2023/04/05 09:20:19;;;;;;;2.43;2.10;;;24.90;16.30;;;30.63;11.06;102356.94;5029238;28;20254;-63
2023/04/05 09:22:46;;;;;;;33.87;29.13;;;24.80;16.60;;;30.67;11.50;102352.59;5028188;28;20242;-62
2023/04/05 09:25:34;;;;;;;4.17;3.77;;;24.60;17.00;;;31.08;11.08;102347.22;5012828;28;20226;-59
2023/04/05 09:28:04;;;;;;;2.90;2.57;;;24.60;17.20;;;30.47;11.79;102347.13;5030199;28;20273;-61
2023/04/05 09:30:35;;;;;;;2.40;2.00;;;24.40;16.60;;;29.07;12.00;102345.13;5019521;28;20613;-60
2023/04/05 09:33:06;;;;;;;2.43;2.23;;;24.00;16.50;;;27.71;12.72;102342.69;5029564;28;20647;-62
2023/04/05 09:35:36;;;;;;;2.10;2.00;;;23.40;16.70;;;26.53;13.02;102340.91;5017089;28;20251;-61
2023/04/05 09:38:04;;;;;;;4.17;3.30;;;22.60;17.00;;;25.77;14.20;102348.47;5020702;28;20202;-62
2023/04/05 09:40:43;;;;;;;3.63;2.47;;;21.90;17.40;;;25.79;13.85;102338.25;5028757;28;20211;-59
2023/04/05 09:43:13;;;;;;;3.07;2.27;;;21.30;18.00;;;25.98;13.54;102337.06;5014734;28;20749;-59
2023/04/05 09:45:44;;;;;;;2.40;1.90;;;21.00;17.80;;;26.49;13.06;102334.34;5024107;28;20234;-61
2023/04/05 09:48:12;;;;;;;2.60;1.83;;;21.00;18.00;;;26.83;13.41;102329.88;5035153;28;20194;-62
2023/04/05 09:50:39;;;;;;;3.73;1.80;;;21.10;18.30;;;27.08;12.63;102334.88;5033679;28;20194;-62
2023/04/05 09:53:14;;;;;;;2.03;1.73;;;21.20;17.70;;;27.47;12.34;102334.75;5032056;28;20202;-61
2023/04/05 09:55:42;;;;;;;2.70;2.50;;;21.50;17.30;;;28.36;12.26;102329.22;5024615;28;20259;-60
2023/04/05 09:58:18;;;;;;;2.97;2.07;;;21.90;17.80;;;28.87;11.78;102325.97;5027035;28;20213;-60
2023/04/05 10:00:53;;;;;;;2.27;1.73;;;22.30;17.20;;;28.12;12.17;102328.66;5021972;28;20195;-59
2023/04/05 10:03:46;;;;;;;2.00;1.80;;;22.30;16.90;;;26.96;12.60;102331.47;5024933;28;20232;-61
2023/04/05 10:06:15;;;;;;;2.43;2.13;;;22.10;17.10;;;26.07;13.25;102324.81;5031656;28;20191;-58
2023/04/05 10:08:45;;;;;;;2.63;1.87;;;21.70;17.30;;;25.89;12.86;102322.25;5027347;28;20721;-60
2023/04/05 10:11:17;;;;;;;2.53;1.70;;;21.40;17.00;;;26.64;13.15;102321.13;5031673;28;20206;-61
2023/04/05 10:13:45;;;;;;;4.27;3.37;;;21.30;17.70;;;27.70;12.46;102320.19;5027804;28;20198;-61
2023/04/05 10:16:21;;;;;;;2.17;1.97;;;21.50;18.10;;;28.62;12.44;102306.75;5027570;28;20217;-58
2023/04/05 10:18:52;;;;;;;5.57;3.20;;;21.80;18.00;;;29.34;12.21;102310.63;5027682;28;20194;-60
2023/04/05 10:21:22;;;;;;;3.93;3.00;;;22.30;18.30;;;30.36;11.66;102303.88;5029375;28;20190;-60
2023/04/05 10:24:03;;;;;;;2.93;2.10;;;22.80;18.10;;;31.00;10.46;102298.78;5030482;28;20210;-60
2023/04/05 10:26:40;;;;;;;2.40;2.20;;;23.20;17.00;;;31.10;10.82;102299.59;5023568;28;20206;-60
2023/04/05 10:29:16;;;;;;;3.33;1.80;;;23.60;16.30;;;30.53;10.91;102294.38;5028436;28;20217;-59